Datos de la estación

Estación Meteorológica de Mancha Real

Provincia: Jaén
Código de Estación: 7
Primer día registrado: 23-08-2000
Último día registrado: 03-03-2024

Datos Localización

Latitud: 37º 54' 59'' N
Longitud: 03º 35' 47'' W
Altitud: 407

Coordenadas UTM

X: 447571
Y: 4196710

Fecha de Medida
03-03-2024
Día Juliano
63
Temp. Máxima (ºC)
12.9
Velocidad Viento Media (m/s)
4.4
Hora Temp. Máxima
14:44
Velocidad Viento Máx. (m/s)
9.2
Temp. Mínima (ºC)
5.0
Dirección Viento Media (º)
250.8
Hora Temp. Mínima
6:18
Radiación (MJ/m2 d)
12.6
Temp. Media (ºC)
8.6
Precipitación (mm)
0.0
Humedad Relativa Máxima (%)
85.1
ETo (mm/dia)
2.6
Humedad Relativa Mínima (%)
45.6
Precipitación Acumulada (mm)
212.1
Humedad Relativa Media (%)
67.6
ETo Acumulada (mm)
461.5
Temperatura Máxima Humedad Máxima Velocidad del Viento Media
Temperatura Mínima Humedad Mínima Velocidad del Viento Máxima
Temperatura Media Humedad Media Precipitación
HH:MM Temperatura Máxima Radiación ETo
HH:MM Temperatura Mínima Dirección del Viento Marcar Todas
 
Fecha Día Juliano Temp. Máxima (ºC) Hora Temp Máxima Temp. Mínima (ºC) Hora Temp Mínima Temp. Media (ºC) Humedad Relativa Máxima (%) Humedad Relativa Media (%) Humedad Relativa Mínima (%) Velocidad Viento Media (m/s) Velocidad Viento Máxima (m/s) Dirección Viento Media (º) Radiación (MJ/m2 d) Precipitación (mm) ETo (mm/dia) Velocidad Viento Máxima
03-03-2024 63 12.9 14:44 5.0 6:18 8.6 85.1 67.6 45.6 4.4 9.2 250.8 12.6 0.0 2.6 9.2
02-03-2024 62 14.1 15:26 2.6 5:26 8.7 91.9 71.6 48.9 4.2 15.0 228.8 10.0 4.5 2.4 15.0
01-03-2024 61 14.4 15:28 3.5 6:10 9.2 83.0 56.0 35.5 1.8 4.9 232.3 19.3 0.0 2.5 4.9
29-02-2024 60 16.6 15:18 4.2 6:44 10.6 85.5 62.6 41.2 2.4 8.4 230.0 19.0 0.0 2.8 8.4
28-02-2024 59 15.3 16:48 1.5 7:34 9.0 76.7 50.4 34.2 1.2 5.1 181.3 18.1 0.0 2.3 5.1
27-02-2024 58 13.1 13:28 3.7 6:46 8.6 84.8 57.6 35.0 1.7 5.5 251.1 10.5 0.0 2.0 5.5
26-02-2024 57 13.4 13:32 6.5 14:50 10.3 93.6 73.2 45.5 5.2 14.0 251.8 8.1 8.4 2.4 14.0
25-02-2024 56 14.8 13:06 8.6 00:32 11.6 91.8 74.5 60.9 5.9 12.5 246.7 7.6 0.0 2.2 12.5
24-02-2024 55 13.6 15:36 7.0 5:44 9.2 86.0 67.8 46.7 5.0 10.5 247.4 13.6 0.3 2.7 10.5
23-02-2024 54 13.4 00:02 6.8 6:32 9.7 91.8 68.6 46.8 4.9 11.8 253.7 13.3 1.2 2.6 11.8
22-02-2024 53 18.9 13:36 8.9 7:38 14.1 86.0 63.6 34.0 3.7 12.0 239.2 15.6 0.1 3.5 12.0
21-02-2024 52 21.9 15:56 4.7 5:24 13.9 87.0 50.3 27.3 1.4 3.8 185.4 17.3 0.0 2.8 3.8
20-02-2024 51 21.9 15:56 8.9 7:02 14.6 79.5 57.4 31.0 1.4 3.7 113.0 17.6 0.0 2.8 3.7
19-02-2024 50 20.6 15:28 6.4 6:12 13.6 90.0 64.6 41.4 1.2 4.4 86.8 16.8 0.0 2.3 4.4
18-02-2024 49 20.5 14:46 5.7 6:26 12.6 83.6 61.3 36.7 1.2 3.9 129.4 16.3 0.0 2.4 3.9
17-02-2024 48 17.7 15:46 6.3 6:24 11.9 91.7 64.1 29.1 1.3 4.7 98.5 16.0 0.0 2.2 4.7
16-02-2024 47 16.7 15:06 9.7 7:30 12.2 90.9 75.4 52.4 2.1 4.2 232.1 11.7 0.0 2.0 4.2
15-02-2024 46 18.6 15:34 11.1 23:58 14.8 89.1 66.8 49.2 2.2 13.7 162.5 5.0 5.8 1.9 13.7
14-02-2024 45 22.1 15:50 11.3 3:22 16.4 90.2 68.8 47.8 1.1 3.6 124.5 10.4 0.0 1.9 3.6
13-02-2024 44 19.8 15:18 11.1 7:10 14.6 94.7 84.0 64.1 1.0 3.4 155.5 10.9 0.0 1.6 3.4
12-02-2024 43 19.5 15:08 7.9 1:48 14.0 94.8 82.1 53.3 2.9 15.0 253.0 9.3 10.2 2.2 15.0
11-02-2024 42 11.3 11:50 6.2 7:00 8.0 94.4 81.0 52.9 1.4 5.7 240.6 5.9 6.8 1.2 5.7
10-02-2024 41 13.0 13:08 7.8 23:52 10.4 84.3 76.0 62.0 5.8 13.4 247.4 8.7 0.8 2.1 13.4
09-02-2024 40 14.6 18:50 9.7 6:32 11.4 94.7 86.0 56.9 3.2 12.4 241.3 1.6 34.4 1.6 12.4
08-02-2024 39 15.9 15:00 6.0 3:48 11.0 91.5 70.2 41.7 1.9 13.3 126.4 8.4 0.0 1.8 13.3
07-02-2024 38 15.5 15:06 7.7 23:54 11.3 91.5 77.7 62.5 1.4 4.5 204.6 10.7 0.0 1.4 4.5
06-02-2024 37 17.7 14:44 7.4 7:46 12.0 78.7 61.5 45.1 1.5 5.9 225.8 12.5 0.0 1.9 5.9
05-02-2024 36 18.9 14:44 4.6 5:54 11.5 58.4 42.0 23.8 1.2 3.8 146.3 13.0 0.0 2.1 3.8
04-02-2024 35 19.8 16:20 5.3 6:16 11.5 72.2 46.2 20.2 1.4 3.6 133.1 15.0 0.0 2.4 3.6
03-02-2024 34 21.0 14:50 5.8 6:58 12.6 69.1 44.3 18.7 1.3 3.6 141.3 14.5 0.0 2.4 3.6
02-02-2024 33 21.1 15:16 5.6 7:20 11.9 78.3 53.3 29.3 1.4 3.9 123.5 14.2 0.0 2.3 3.9
01-02-2024 32 18.0 15:50 4.4 3:54 10.3 90.3 69.7 45.6 1.3 3.6 122.9 14.0 0.0 1.7 3.6
31-01-2024 31 17.6 14:04 5.8 7:48 11.2 84.9 67.4 43.9 1.0 3.0 119.4 13.8 0.0 1.6 3.0
30-01-2024 30 18.6 15:26 6.6 4:08 11.5 85.3 67.5 40.4 1.2 3.4 111.3 13.4 0.0 1.8 3.4
29-01-2024 29 16.9 13:30 8.7 7:48 12.1 74.1 58.1 43.4 1.3 3.4 144.5 11.7 0.0 1.7 3.4
28-01-2024 28 20.9 15:06 8.7 7:36 13.8 60.4 48.5 31.0 1.6 4.0 126.5 12.0 0.0 2.4 4.0
27-01-2024 27 23.1 15:48 10.7 1:42 15.6 65.9 44.1 24.6 1.4 4.2 122.6 13.5 0.0 2.4 4.2
26-01-2024 26 24.1 15:48 10.3 2:38 15.8 62.6 46.7 26.6 1.3 4.6 119.2 11.7 0.0 2.4 4.6
25-01-2024 25 25.8 16:46 8.8 6:34 15.3 65.2 47.7 26.2 1.5 4.3 112.6 13.2 0.0 2.8 4.3
24-01-2024 24 22.2 14:18 7.5 7:36 14.2 81.9 60.7 37.1 1.3 3.8 119.7 13.1 0.0 2.0 3.8
23-01-2024 23 20.3 16:24 5.7 6:40 12.2 84.2 65.0 42.8 1.3 5.0 107.6 12.4 0.0 1.8 5.0
22-01-2024 22 15.8 15:40 2.7 5:54 8.9 92.9 73.2 45.2 1.0 3.6 109.6 12.3 0.0 1.3 3.6
21-01-2024 21 15.6 15:44 6.5 5:04 9.9 93.6 77.9 47.2 1.1 3.5 117.3 11.4 0.0 1.3 3.5
20-01-2024 20 11.6 15:14 6.4 7:08 8.7 92.3 83.5 71.0 1.3 7.1 279.8 5.7 0.0 0.9 7.1
19-01-2024 19 17.3 10:24 8.9 22:16 12.4 93.7 78.5 46.3 3.6 13.7 186.6 3.3 7.4 2.2 13.7
18-01-2024 18 18.9 14:10 11.5 23:32 14.6 93.7 70.6 48.1 2.7 8.9 232.8 8.0 0.0 2.0 8.9
17-01-2024 17 19.8 4:20 11.1 00:32 15.9 83.3 58.0 39.7 6.4 17.0 230.1 9.2 0.0 3.7 17.0
16-01-2024 16 18.5 16:32 9.3 8:00 13.1 93.9 80.1 27.2 1.6 11.5 131.9 6.3 1.6 1.9 11.5
15-01-2024 15 15.1 12:54 7.6 4:18 12.1 93.9 79.8 55.4 1.1 4.3 321.3 5.6 0.0 1.1 4.3
14-01-2024 14 18.6 15:06 5.6 7:20 12.1 83.9 52.4 26.8 1.1 3.6 154.0 10.7 0.0 1.5 3.6
13-01-2024 13 16.0 14:30 5.0 7:44 9.7 84.5 68.4 44.1 1.4 4.0 103.0 9.5 0.0 1.4 4.0
12-01-2024 12 15.1 14:16 2.7 5:04 8.9 90.0 70.5 43.1 1.2 3.4 97.0 11.4 0.0 1.2 3.4
11-01-2024 11 13.1 15:06 4.8 23:04 8.2 90.6 82.9 65.8 1.0 3.4 207.8 7.1 0.0 0.9 3.4
10-01-2024 10 11.7 15:22 7.2 23:50 8.8 94.5 85.3 69.3 1.7 6.0 262.3 4.7 2.0 0.9 6.0
09-01-2024 9 10.8 13:44 5.2 6:04 7.8 94.0 77.8 59.6 0.7 3.2 271.8 5.2 3.2 0.7 3.2
08-01-2024 8 11.7 13:58 -0.9 5:32 5.5 92.2 66.9 39.8 0.9 2.8 115.6 10.7 0.0 0.9 2.8
07-01-2024 7 11.9 15:06 0.0 8:08 5.2 93.4 73.9 37.6 1.1 3.2 136.3 10.4 0.0 1.1 3.2
06-01-2024 6 10.1 15:02 3.1 8:08 6.6 92.3 77.7 59.9 1.9 5.8 252.3 10.2 0.0 1.0 5.8
05-01-2024 5 11.1 00:06 6.9 23:48 9.1 93.9 76.9 56.3 4.0 8.9 258.1 5.6 2.4 1.5 8.9
04-01-2024 4 14.6 14:34 9.4 2:06 11.5 93.9 91.2 82.9 1.4 9.7 152.1 2.8 9.0 0.7 9.7
03-01-2024 3 15.8 15:12 4.6 6:44 9.9 93.8 78.6 55.5 1.2 3.8 122.5 7.7 1.6 1.1 3.8
02-01-2024 2 16.0 15:06 3.1 5:14 9.0 91.3 70.3 46.3 1.3 3.9 109.2 11.0 0.0 1.2 3.9
01-01-2024 1 14.6 15:58 5.2 1:04 8.9 92.1 76.9 48.8 1.5 4.7 147.6 8.2 0.0 1.2 4.7
31-12-2023 365 12.6 16:30 1.1 8:10 7.1 90.5 75.9 61.5 1.3 3.8 125.7 7.5 0.0 0.9 3.8
30-12-2023 364 15.4 14:38 2.7 8:46 8.6 85.6 61.7 37.2 1.1 3.5 141.4 11.0 0.0 1.2 3.5
29-12-2023 363 12.4 14:10 4.6 6:52 8.4 78.9 61.6 40.4 0.9 3.8 118.4 4.4 0.0 1.0 3.8
28-12-2023 362 15.0 15:40 0.9 7:02 7.8 86.7 58.1 34.7 1.1 3.5 117.4 9.5 0.0 1.2 3.5
27-12-2023 361 13.9 15:36 -1.4 6:50 6.4 91.0 62.7 36.3 1.1 3.9 136.1 11.1 0.0 1.1 3.9
26-12-2023 360 14.8 15:48 0.6 6:38 6.6 89.5 66.7 38.3 1.0 3.3 117.4 11.1 0.0 1.1 3.3
25-12-2023 359 13.6 15:28 2.3 6:10 6.8 91.1 77.3 59.1 1.2 3.1 118.3 10.9 0.0 0.9 3.1
24-12-2023 358 13.8 14:06 2.4 7:14 7.5 84.6 68.9 44.6 1.3 3.2 127.6 10.9 0.0 1.1 3.2
23-12-2023 357 16.1 14:50 2.6 7:42 8.2 83.7 64.4 37.2 1.5 4.1 128.8 11.1 0.0 1.5 4.1
22-12-2023 356 16.3 14:12 1.2 7:16 8.4 89.6 64.5 35.3 1.1 3.5 93.9 11.0 0.0 1.2 3.5
21-12-2023 355 14.1 15:02 0.5 8:26 6.8 91.1 69.2 41.4 0.9 3.2 99.7 10.7 0.0 0.9 3.2
20-12-2023 354 7.8 12:14 -1.4 7:28 4.0 87.5 74.8 55.2 0.8 3.0 138.4 5.2 0.2 0.7 3.0
19-12-2023 353 13.8 14:24 0.1 6:54 6.1 82.2 55.7 24.9 1.2 3.5 122.7 11.2 0.0 1.3 3.5
18-12-2023 352 14.0 13:48 1.4 6:06 6.4 81.9 56.1 26.4 1.1 4.5 115.3 11.2 0.0 1.2 4.5
17-12-2023 351 14.8 15:46 1.6 7:46 7.5 78.3 55.8 32.3 1.3 4.2 117.4 11.1 0.0 1.3 4.2
16-12-2023 350 15.4 15:06 1.3 7:34 7.8 85.6 56.4 29.3 1.4 4.2 109.3 11.2 0.0 1.4 4.2
15-12-2023 349 15.8 15:00 3.5 7:40 8.9 82.8 59.5 32.4 1.5 4.4 103.6 11.1 0.0 1.5 4.4
14-12-2023 348 13.4 14:58 2.6 7:22 8.3 90.9 68.0 44.7 1.1 3.4 112.5 10.6 0.0 1.0 3.4
13-12-2023 347 14.6 2:40 7.4 23:46 12.0 92.7 78.2 62.1 3.0 7.5 243.3 4.6 2.6 1.4 7.5
12-12-2023 346 19.2 13:46 7.0 7:44 13.3 89.2 67.9 42.6 1.3 6.0 193.8 10.4 0.0 1.4 6.0
11-12-2023 345 18.4 14:02 3.9 7:14 11.7 94.0 78.7 53.3 0.8 2.6 122.2 9.6 0.2 1.0 2.6
10-12-2023 344 18.0 14:36 8.2 7:40 12.5 92.4 81.0 58.4 1.0 3.0 126.9 10.5 0.0 1.1 3.0
09-12-2023 343 14.4 13:44 6.1 7:14 10.6 90.9 80.0 62.4 0.8 3.5 123.5 5.9 0.0 0.8 3.5
08-12-2023 342 13.6 15:42 9.4 23:42 12.3 93.4 81.4 70.2 3.3 9.4 247.0 4.7 5.2 1.2 9.4
07-12-2023 341 15.9 12:12 11.1 00:56 12.9 93.2 86.1 76.2 1.3 5.9 69.5 5.3 0.0 0.9 5.9
06-12-2023 340 13.1 14:40 8.1 3:00 10.4 93.1 86.9 76.4 0.6 3.7 109.0 3.7 1.2 0.7 3.7
05-12-2023 339 10.9 14:38 5.3 7:56 8.1 94.3 87.3 70.6 1.3 4.2 102.2 3.5 2.4 0.8 4.2
04-12-2023 338 8.2 14:08 5.2 00:46 6.7 93.9 89.7 73.1 0.9 4.0 113.1 1.7 3.8 0.6 4.0
03-12-2023 337 11.8 14:10 1.0 6:38 6.5 92.6 77.1 52.2 1.0 3.2 114.7 10.1 0.0 0.9 3.2
02-12-2023 336 11.2 15:56 4.1 23:46 7.1 93.2 83.4 62.3 1.4 4.1 219.0 5.2 0.2 0.9 4.1
01-12-2023 335 18.7 2:40 7.6 20:46 12.1 92.4 73.5 45.1 4.3 13.0 240.9 4.1 10.0 2.6 13.0
30-11-2023 334 20.0 13:48 13.9 1:28 16.5 93.8 77.2 56.0 3.0 9.5 223.0 4.5 4.6 1.9 9.5
29-11-2023 333 15.4 13:02 10.6 5:40 13.1 93.6 82.8 69.0 0.9 4.8 119.2 4.0 2.2 0.9 4.8
28-11-2023 332 14.4 16:18 6.2 6:30 10.3 88.6 76.8 62.7 1.0 3.2 152.4 5.9 0.0 0.9 3.2
27-11-2023 331 14.6 14:20 4.5 7:16 9.4 86.2 72.3 57.4 1.3 4.7 206.3 9.4 0.0 1.1 4.7
26-11-2023 330 17.2 14:08 3.6 6:40 10.2 74.5 52.9 33.8 1.2 3.6 151.5 11.9 0.0 1.5 3.6
25-11-2023 329 18.2 14:28 3.0 6:32 9.9 75.1 49.1 28.2 1.2 3.4 128.0 12.5 0.0 1.6 3.4
24-11-2023 328 17.7 14:26 2.1 5:18 9.3 80.4 50.5 24.0 1.0 3.3 114.8 12.6 0.0 1.5 3.3
23-11-2023 327 17.4 13:54 2.5 7:20 9.6 84.6 52.8 27.1 1.2 3.4 115.2 12.7 0.0 1.6 3.4
22-11-2023 326 16.0 13:16 5.0 6:48 10.9 74.6 49.0 36.5 1.3 5.7 98.0 12.8 0.0 1.5 5.7
21-11-2023 325 17.6 13:50 9.1 --:-- 12.9 93.7 65.3 29.3 1.3 5.4 355.5 8.6 0.2 1.6 5.4
20-11-2023 324 21.3 14:26 9.1 7:28 15.2 76.6 55.8 37.1 1.2 3.9 230.4 12.1 0.0 1.8 3.9
19-11-2023 323 24.3 14:22 10.5 6:50 16.4 78.8 56.5 31.7 1.5 3.8 118.9 12.8 0.0 2.3 3.8
18-11-2023 322 24.5 13:26 10.2 7:16 16.7 80.5 56.4 33.5 1.4 4.7 103.0 12.8 0.0 2.2 4.7
17-11-2023 321 24.3 15:38 9.5 4:44 16.0 76.9 54.7 35.7 1.2 3.8 119.8 13.0 0.0 2.1 3.8
16-11-2023 320 22.9 15:52 10.7 7:14 15.6 64.0 49.2 32.6 1.1 3.1 116.4 10.0 0.0 2.0 3.1
15-11-2023 319 25.1 15:00 9.3 6:44 16.6 80.4 47.7 26.4 1.2 4.0 108.1 13.4 0.0 2.2 4.0
14-11-2023 318 25.6 14:42 10.8 6:36 16.8 81.6 54.4 21.7 1.3 3.5 118.7 13.5 0.0 2.5 3.5
13-11-2023 317 23.9 13:42 10.7 5:46 16.5 91.2 69.6 47.9 1.3 3.2 129.0 13.0 0.0 2.0 3.2
12-11-2023 316 21.9 14:12 12.1 7:20 16.2 87.6 72.5 51.9 1.1 3.6 242.3 12.6 0.0 1.7 3.6
11-11-2023 315 20.2 15:14 12.4 6:36 15.4 84.3 73.7 50.9 1.5 6.0 254.5 8.9 0.0 1.8 6.0
10-11-2023 314 17.2 14:46 10.1 7:00 13.5 89.1 70.2 49.8 2.0 6.1 245.8 12.2 0.0 1.9 6.1
09-11-2023 313 15.0 15:10 9.0 6:08 11.6 88.1 76.1 63.9 0.9 2.6 119.3 6.5 0.0 1.1 2.6
08-11-2023 312 16.9 15:06 6.1 7:40 10.8 80.7 61.0 36.7 1.3 3.8 120.5 12.3 0.0 1.8 3.8
07-11-2023 311 16.5 14:58 4.9 6:46 10.4 86.4 60.1 24.3 1.5 4.7 190.4 14.6 0.0 2.0 4.7
06-11-2023 310 16.0 14:30 8.4 23:36 12.0 82.4 64.0 40.3 2.0 5.4 237.6 13.5 0.0 2.1 5.4
05-11-2023 309 17.4 15:00 10.1 7:16 13.6 81.9 63.7 40.2 2.4 6.7 240.8 12.6 0.0 2.4 6.7
04-11-2023 308 20.0 14:00 11.7 2:40 15.5 90.1 70.2 50.4 5.7 15.7 247.9 9.5 1.4 3.1 15.7
03-11-2023 307 16.4 13:48 10.5 2:04 13.0 76.8 67.9 52.3 4.9 11.1 245.5 10.6 0.0 2.8 11.1
02-11-2023 306 20.1 12:30 11.9 23:56 16.8 90.4 71.7 62.8 7.1 18.1 244.9 7.5 1.6 2.7 18.1
01-11-2023 305 20.0 13:40 9.3 6:24 15.1 88.6 70.5 52.4 2.3 9.4 236.7 14.3 0.0 2.3 9.4
31-10-2023 304 15.2 14:12 9.1 6:50 12.3 86.7 78.9 64.9 1.0 3.8 123.5 4.5 0.0 1.1 3.8
30-10-2023 303 18.7 15:28 10.8 --:-- 14.5 93.0 78.2 46.0 2.1 8.8 256.6 8.1 1.0 2.0 8.8
29-10-2023 302 21.4 13:22 9.8 4:34 15.4 90.6 73.4 45.9 1.5 5.9 143.7 13.6 0.0 2.2 5.9
28-10-2023 301 20.7 14:22 11.1 6:40 15.5 88.1 70.3 50.0 1.7 6.1 218.8 11.7 0.0 2.2 6.1
27-10-2023 300 19.2 14:32 12.5 23:28 15.5 92.1 68.9 47.2 2.3 7.2 250.0 11.0 0.0 2.3 7.2
26-10-2023 299 21.8 14:18 14.8 2:10 17.7 92.1 79.7 57.9 3.8 11.8 244.1 6.4 1.4 2.5 11.8
25-10-2023 298 21.5 14:56 12.9 6:00 16.4 93.2 80.9 56.8 2.1 8.3 232.8 7.1 3.4 2.0 8.3
24-10-2023 297 18.3 15:18 12.2 7:06 15.0 92.0 70.7 44.0 2.7 7.6 258.4 13.5 0.2 2.6 7.6
23-10-2023 296 19.5 12:30 13.5 2:34 15.3 92.5 83.6 63.9 1.2 8.6 305.1 8.1 4.2 1.6 8.6
22-10-2023 295 24.4 17:22 10.3 1:30 16.9 83.1 57.4 31.5 3.0 14.9 143.3 7.2 0.0 3.6 14.9
21-10-2023 294 19.1 14:58 10.5 7:04 14.1 85.4 65.7 33.1 1.4 4.6 253.3 16.5 0.0 2.5 4.6
20-10-2023 293 18.1 14:46 13.2 5:10 15.0 88.6 72.1 52.7 5.4 11.3 243.9 12.7 0.2 3.0 11.3
19-10-2023 292 25.5 12:44 12.5 23:44 19.2 92.7 65.3 40.1 5.0 15.5 228.8 8.1 26.6 4.2 15.5
18-10-2023 291 24.7 13:54 17.2 3:36 20.1 86.7 64.4 40.5 4.7 11.7 244.4 15.0 0.4 4.4 11.7
17-10-2023 290 30.2 13:48 16.4 5:28 21.4 79.9 58.5 23.5 2.0 11.8 204.5 11.4 0.0 4.1 11.8
16-10-2023 289 25.4 15:24 15.2 6:00 19.9 83.2 64.6 43.5 1.2 4.3 244.0 13.4 0.0 2.6 4.3
15-10-2023 288 26.4 13:22 13.7 6:56 19.7 84.8 62.0 30.2 1.6 4.8 152.8 15.4 0.0 3.3 4.8
14-10-2023 287 23.9 15:02 16.2 7:42 19.5 92.2 67.4 38.7 1.6 7.3 159.7 10.2 3.8 2.6 7.3
13-10-2023 286 29.6 14:36 16.6 5:42 22.8 54.6 36.5 20.2 1.7 5.8 169.9 16.4 0.0 4.2 5.8
12-10-2023 285 31.5 13:28 15.9 6:26 23.1 58.7 33.4 13.2 1.6 4.0 118.7 18.3 0.0 4.5 4.0
11-10-2023 284 30.7 16:00 15.4 6:04 22.2 64.0 37.4 11.7 1.4 4.0 130.5 18.6 0.0 4.1 4.0
10-10-2023 283 31.0 14:48 14.8 5:34 22.4 64.8 38.2 14.2 1.3 4.4 135.8 19.0 0.0 4.0 4.4
09-10-2023 282 31.1 14:44 16.8 5:02 23.6 65.7 33.3 9.1 1.4 3.8 99.8 17.6 0.0 4.2 3.8
08-10-2023 281 33.5 15:52 17.6 6:22 25.1 54.9 29.2 11.6 1.3 4.3 111.6 18.9 0.0 4.3 4.3
07-10-2023 280 34.3 14:02 18.2 4:32 26.1 36.3 20.6 5.7 1.6 5.2 100.1 18.6 0.0 4.9 5.2
06-10-2023 279 35.1 14:04 18.5 5:42 26.4 42.8 25.4 8.8 1.5 4.5 94.0 19.2 0.0 4.9 4.5
05-10-2023 278 35.3 15:40 17.1 5:50 25.9 68.0 31.8 6.9 1.4 4.4 118.8 19.8 0.0 4.8 4.4
04-10-2023 277 33.7 15:30 19.3 6:12 26.0 41.8 27.9 14.7 1.4 4.2 173.4 18.8 0.0 4.6 4.2
03-10-2023 276 35.3 15:30 18.3 4:34 25.7 46.5 25.7 10.2 1.6 4.4 135.2 19.6 0.0 5.3 4.4
02-10-2023 275 35.7 14:56 18.1 5:58 26.3 45.5 22.0 5.6 1.7 4.2 129.7 20.8 0.0 5.6 4.2
01-10-2023 274 35.5 14:30 18.3 3:48 26.5 49.6 24.9 8.0 1.5 4.5 155.8 21.2 0.0 5.2 4.5
30-09-2023 273 36.1 14:56 18.8 5:48 27.9 45.6 25.0 9.2 1.5 7.0 128.4 20.9 0.0 5.2 7.0
29-09-2023 272 36.0 16:22 19.1 6:16 27.1 51.4 29.9 11.6 1.4 4.7 94.4 20.8 0.0 5.1 4.7
28-09-2023 271 33.1 14:08 16.9 5:56 25.0 53.4 32.5 13.2 1.5 4.2 116.6 19.5 0.0 4.9 4.2
27-09-2023 270 33.1 15:04 16.7 6:22 24.8 70.1 35.5 12.6 1.5 5.0 147.8 21.4 0.0 5.0 5.0
26-09-2023 269 32.4 16:36 16.6 5:56 24.5 57.4 35.2 15.8 1.4 4.0 137.5 21.5 0.0 4.8 4.0
25-09-2023 268 34.2 15:20 16.1 4:58 24.7 59.1 34.6 12.4 1.5 4.6 121.7 21.8 0.0 5.3 4.6
24-09-2023 267 32.3 15:22 14.9 4:26 23.5 62.4 34.9 12.8 1.5 4.5 170.4 22.1 0.0 5.1 4.5
23-09-2023 266 28.4 14:46 11.5 6:36 20.2 79.4 45.0 19.4 1.2 3.8 104.0 22.2 0.0 4.2 3.8
22-09-2023 265 24.1 15:34 15.5 6:40 18.8 92.5 58.8 27.2 2.0 5.5 239.8 19.3 1.6 4.0 5.5
21-09-2023 264 25.6 15:12 15.4 6:52 20.0 92.4 55.9 30.5 3.2 10.4 256.3 18.8 1.0 4.8 10.4
20-09-2023 263 28.8 14:42 15.7 6:30 22.4 76.5 46.4 27.8 2.0 8.0 259.7 22.2 0.0 5.0 8.0
19-09-2023 262 28.2 14:34 15.2 6:24 21.9 73.9 45.5 27.0 1.7 6.2 211.8 22.0 0.0 4.7 6.2
18-09-2023 261 24.1 14:28 15.1 6:10 19.4 87.2 60.0 36.2 1.4 5.9 252.2 17.5 0.0 3.5 5.9
17-09-2023 260 23.8 10:52 15.8 6:14 18.8 86.2 72.4 59.7 1.9 8.7 254.2 12.9 0.0 2.9 8.7
16-09-2023 259 28.1 15:20 17.6 6:22 21.8 88.2 65.7 37.2 1.2 4.9 272.6 17.2 0.0 3.7 4.9
15-09-2023 258 30.8 14:00 18.6 6:02 22.1 91.3 72.7 38.0 1.5 12.0 218.5 15.3 14.8 4.0 12.0
14-09-2023 257 33.1 14:10 19.9 6:20 26.7 64.7 44.0 27.0 1.9 7.0 136.4 19.2 0.0 5.4 7.0
13-09-2023 256 32.5 13:18 18.1 6:02 25.6 61.6 40.2 22.6 1.2 5.5 213.8 20.0 0.0 4.6 5.5
12-09-2023 255 30.8 16:14 18.1 6:18 24.3 73.7 42.5 18.5 1.6 5.8 255.8 22.3 0.0 5.2 5.8
11-09-2023 254 29.9 15:38 20.4 6:14 24.4 66.8 46.8 28.6 2.3 7.6 265.8 20.7 0.0 5.6 7.6
10-09-2023 253 33.1 14:42 19.1 6:12 25.9 77.0 47.0 21.8 1.9 6.2 253.1 22.4 0.0 5.8 6.2
09-09-2023 252 31.8 16:08 19.7 6:18 25.5 80.2 53.0 35.2 1.9 7.8 264.7 21.1 0.0 5.2 7.8
08-09-2023 251 33.5 16:02 19.7 6:16 26.6 80.0 50.0 28.6 1.6 6.3 260.5 21.8 0.0 5.4 6.3
07-09-2023 250 32.7 15:22 21.3 5:34 26.6 76.2 50.2 32.8 1.5 5.2 284.3 20.5 0.0 5.0 5.2
06-09-2023 249 33.0 15:08 18.7 6:30 25.6 65.2 43.6 26.9 1.3 4.8 209.0 21.0 0.0 5.0 4.8
05-09-2023 248 29.9 13:50 16.6 6:10 23.3 83.9 52.8 28.1 1.4 4.7 216.8 20.0 0.0 4.6 4.7
04-09-2023 247 27.3 14:14 17.4 --:-- 21.5 92.8 68.6 36.1 2.0 8.0 239.3 19.1 0.0 4.4 8.0
03-09-2023 246 20.9 10:56 16.4 16:40 17.9 92.7 87.5 70.0 1.4 6.9 261.7 3.4 16.2 1.4 6.9
02-09-2023 245 29.7 13:04 17.9 22:56 23.3 91.6 57.7 32.5 2.3 7.5 290.5 18.6 1.8 5.0 7.5
01-09-2023 244 33.8 14:52 21.5 5:18 27.5 47.7 33.6 16.4 1.7 7.0 285.9 21.9 0.0 6.0 7.0
31-08-2023 243 34.3 16:18 18.9 6:08 27.1 50.8 31.5 16.4 1.6 6.7 282.3 24.9 0.0 6.1 6.7
30-08-2023 242 33.7 15:34 18.2 5:56 26.3 39.6 23.1 11.7 1.3 5.4 123.7 24.1 0.0 5.6 5.4
29-08-2023 241 33.6 16:10 17.0 5:40 25.9 37.0 20.9 10.6 1.6 5.7 160.4 25.9 0.0 6.2 5.7
28-08-2023 240 30.4 15:34 17.1 6:18 24.0 35.2 22.3 13.6 1.4 5.7 113.1 26.2 0.0 5.6 5.7
27-08-2023 239 29.0 15:56 18.6 6:06 24.1 41.7 24.7 12.8 2.9 10.3 310.5 24.1 0.0 7.1 10.3
26-08-2023 238 40.2 12:14 26.0 5:36 32.3 26.2 16.8 8.9 2.5 13.3 230.2 19.5 0.0 8.4 13.3
25-08-2023 237 41.6 15:18 25.0 5:16 33.5 33.1 18.1 8.1 1.7 7.2 224.3 24.7 0.0 7.4 7.2
24-08-2023 236 40.7 15:38 23.7 5:54 32.9 37.4 19.0 7.5 1.5 4.6 219.2 25.9 0.0 7.0 4.6
23-08-2023 235 41.2 15:32 23.7 6:18 33.4 37.4 17.1 5.0 1.5 6.7 109.1 26.7 0.0 7.0 6.7
22-08-2023 234 40.9 13:44 24.5 5:28 33.4 34.6 20.3 9.2 2.4 8.4 117.3 26.4 0.0 8.7 8.4
21-08-2023 233 41.9 14:12 25.3 5:20 33.8 33.7 22.0 11.7 1.3 5.7 80.4 26.1 0.0 6.9 5.7
20-08-2023 232 41.8 15:42 23.8 5:48 33.3 34.2 16.7 6.1 1.6 4.8 152.9 26.7 0.0 7.4 4.8
19-08-2023 231 39.4 16:06 21.9 5:18 31.2 35.0 18.7 7.1 1.4 5.9 185.8 26.9 0.0 6.8 5.9
18-08-2023 230 37.5 15:50 19.9 5:16 29.1 37.9 20.7 7.9 1.7 6.5 261.7 26.4 0.0 7.1 6.5
17-08-2023 229 36.8 14:26 21.5 4:48 29.0 41.0 25.3 10.6 2.0 7.9 278.0 27.4 0.0 7.7 7.9
16-08-2023 228 37.5 15:46 22.3 5:38 29.9 32.4 19.2 9.9 2.2 8.4 263.4 27.3 0.0 8.1 8.4
15-08-2023 227 38.8 15:04 21.9 5:14 30.7 37.5 18.6 9.0 1.9 7.4 255.5 26.8 0.0 7.7 7.4
14-08-2023 226 37.9 14:20 22.0 5:30 30.1 44.7 26.0 14.4 2.0 9.5 270.3 27.6 0.0 7.8 9.5
13-08-2023 225 39.8 15:34 24.4 6:14 32.3 36.6 20.8 9.7 2.5 10.8 239.9 27.7 0.0 9.0 10.8
12-08-2023 224 40.4 16:40 23.4 5:28 32.9 31.1 15.7 3.5 2.0 7.3 246.6 28.1 0.0 8.2 7.3
11-08-2023 223 42.5 16:04 24.3 5:46 34.1 33.4 14.1 3.7 1.7 6.4 252.9 28.6 0.0 8.0 6.4
10-08-2023 222 41.6 16:38 27.0 6:02 34.2 45.8 26.1 9.2 2.1 7.8 251.0 25.6 0.0 8.5 7.8
09-08-2023 221 42.4 15:38 25.3 6:10 34.3 45.4 25.8 12.7 1.9 6.9 274.4 25.0 0.0 8.1 6.9
08-08-2023 220 42.3 15:50 24.5 5:20 32.8 60.3 30.5 12.1 1.5 6.5 227.3 24.4 0.0 7.4 6.5
07-08-2023 219 42.3 15:26 23.9 4:38 33.0 30.6 19.2 8.6 1.6 5.3 63.2 27.6 0.0 7.9 5.3
06-08-2023 218 40.6 16:26 22.2 5:40 31.7 36.3 17.1 4.6 1.6 6.0 130.4 28.9 0.0 7.8 6.0
05-08-2023 217 37.5 15:40 19.0 4:56 28.8 50.7 21.5 5.6 1.3 5.5 74.9 28.9 0.0 6.9 5.5
04-08-2023 216 34.3 16:18 20.6 5:36 27.7 39.3 20.7 4.9 1.9 7.7 23.0 28.9 0.0 7.5 7.7
03-08-2023 215 35.9 15:52 23.8 5:32 29.6 50.8 30.4 10.7 2.9 8.0 259.1 28.6 0.0 9.1 8.0
02-08-2023 214 37.7 16:00 21.9 5:50 30.0 48.9 30.6 14.5 2.3 8.5 265.4 28.8 0.0 8.5 8.5
01-08-2023 213 37.9 15:46 20.0 5:28 29.7 41.1 23.7 8.8 1.7 6.9 267.2 29.1 0.0 7.7 6.9
31-07-2023 212 38.3 15:34 22.8 5:30 31.1 37.5 20.5 5.5 2.2 9.9 266.0 29.2 0.0 8.6 9.9
30-07-2023 211 40.4 15:26 23.2 5:14 32.3 37.7 21.4 8.7 2.0 7.3 253.2 29.4 0.0 8.6 7.3
29-07-2023 210 39.2 15:24 21.3 5:08 31.0 30.9 15.9 6.4 1.6 7.4 248.6 29.5 0.0 7.7 7.4
28-07-2023 209 37.4 15:52 19.3 5:38 28.2 53.0 29.1 10.4 1.8 7.2 281.3 29.5 0.0 7.9 7.2
27-07-2023 208 34.1 15:56 21.3 5:30 27.7 42.4 30.4 20.3 2.2 7.9 271.0 28.3 0.0 7.7 7.9
26-07-2023 207 38.0 14:40 19.9 5:22 29.3 45.3 25.6 11.4 1.6 7.0 296.2 29.7 0.0 7.7 7.0
25-07-2023 206 35.2 16:48 20.8 5:26 28.1 54.4 29.2 9.3 2.5 7.1 260.9 29.9 0.0 8.6 7.1
24-07-2023 205 35.9 15:22 25.2 6:06 30.1 42.4 22.5 9.7 3.5 9.5 260.8 27.2 0.0 10.0 9.5
23-07-2023 204 39.2 16:00 22.3 5:42 30.7 37.5 22.7 14.4 1.9 7.1 265.4 27.3 0.0 8.1 7.1
22-07-2023 203 37.6 15:40 20.1 4:28 29.3 47.5 27.0 11.8 1.7 6.5 270.8 28.2 0.0 7.6 6.5
21-07-2023 202 36.4 16:12 21.9 5:36 28.7 37.8 22.3 8.8 2.6 8.0 272.9 30.2 0.0 9.2 8.0
20-07-2023 201 38.5 15:18 25.9 6:14 31.8 40.3 24.0 10.3 3.0 10.1 271.9 26.8 0.0 9.8 10.1
19-07-2023 200 41.2 16:10 26.5 5:34 33.7 45.7 29.4 16.0 2.1 6.9 268.9 27.0 0.0 8.7 6.9
18-07-2023 199 41.0 15:10 24.3 5:22 33.7 39.2 25.1 14.2 2.0 7.1 254.4 27.6 0.0 8.5 7.1
17-07-2023 198 43.3 14:58 22.8 6:02 34.0 41.0 21.1 6.8 1.7 6.5 273.0 29.6 0.0 8.6 6.5
16-07-2023 197 38.0 17:18 20.7 5:56 29.5 51.9 32.4 18.1 1.0 4.1 224.9 24.9 0.0 6.2 4.1
15-07-2023 196 36.6 15:42 23.2 5:26 29.7 41.0 28.1 15.7 2.7 10.2 269.4 30.5 0.0 9.3 10.2
14-07-2023 195 38.8 16:26 23.0 5:24 31.6 52.6 26.5 12.9 2.3 8.7 277.0 30.2 0.0 8.9 8.7
13-07-2023 194 39.7 15:42 23.1 4:54 31.8 32.8 16.6 8.3 1.9 7.2 233.2 30.9 0.0 8.7 7.2
12-07-2023 193 40.5 16:14 24.8 6:00 32.6 36.9 19.1 6.1 2.1 8.5 253.6 30.8 0.0 9.2 8.5
11-07-2023 192 41.3 15:54 26.6 6:08 33.5 40.6 25.0 12.9 2.2 8.6 246.5 26.0 0.0 8.9 8.6
10-07-2023 191 43.9 16:44 25.2 5:20 34.1 37.9 22.6 10.4 1.7 7.0 183.4 26.6 0.0 8.5 7.0
09-07-2023 190 39.5 16:58 22.7 4:42 31.2 41.1 24.3 15.1 1.4 5.2 259.2 29.3 0.0 7.6 5.2
08-07-2023 189 37.0 15:46 19.9 4:54 28.4 50.6 26.6 12.8 1.5 5.9 280.5 30.5 0.0 7.6 5.9
07-07-2023 188 36.2 15:54 22.8 4:36 29.0 41.4 30.3 21.2 2.4 8.3 282.6 26.0 0.0 8.2 8.3
06-07-2023 187 37.0 15:40 21.6 4:46 29.6 30.2 18.1 10.2 1.9 7.4 280.6 30.5 0.0 8.3 7.4
05-07-2023 186 38.0 15:32 20.9 4:48 30.2 36.5 20.5 10.3 2.0 7.2 274.6 28.0 0.0 8.2 7.2
04-07-2023 185 37.0 16:16 23.5 5:20 30.5 50.2 28.0 9.1 2.6 8.5 256.5 31.3 0.0 9.3 8.5
03-07-2023 184 38.4 15:20 23.6 5:40 31.2 49.3 30.8 15.9 2.4 9.2 258.4 30.5 0.0 9.1 9.2
02-07-2023 183 38.0 15:40 22.7 4:52 30.5 63.0 36.6 17.6 1.6 6.1 291.9 30.1 0.0 7.8 6.1
01-07-2023 182 37.0 16:00 21.9 5:06 29.3 49.2 31.2 15.3 1.1 4.6 302.6 30.6 0.0 7.0 4.6
30-06-2023 181 36.1 14:24 21.3 4:54 29.4 51.2 29.2 9.5 1.8 6.9 265.5 30.5 0.0 7.9 6.9
29-06-2023 180 38.4 15:42 23.4 5:24 31.0 49.8 32.4 14.5 2.6 8.8 264.4 29.1 0.0 9.3 8.8
28-06-2023 179 39.3 15:24 23.5 5:14 31.6 41.6 25.2 14.1 2.1 7.8 201.3 29.1 0.0 8.7 7.8
27-06-2023 178 40.7 15:56 24.3 6:00 32.4 43.3 25.5 10.9 1.5 5.6 102.0 26.8 0.0 7.7 5.6
26-06-2023 177 41.1 15:38 24.9 5:58 33.0 44.9 26.6 12.0 2.1 9.0 174.1 27.6 0.0 8.9 9.0
25-06-2023 176 41.3 16:06 23.2 5:16 32.3 55.1 31.9 13.2 1.6 6.4 115.5 28.5 0.0 8.2 6.4
24-06-2023 175 39.2 15:36 21.9 5:18 30.6 61.5 34.4 15.7 1.3 4.8 124.9 28.7 0.0 7.4 4.8
23-06-2023 174 37.2 14:32 20.5 5:02 29.5 58.4 36.8 20.0 1.4 6.1 98.2 28.6 0.0 7.2 6.1
22-06-2023 173 34.0 16:40 16.1 5:18 25.3 75.9 45.1 18.4 1.3 4.6 79.8 28.9 0.0 6.6 4.6
21-06-2023 172 23.4 16:28 18.0 12:46 21.1 94.8 64.5 48.5 1.5 5.0 108.1 10.4 0.4 2.8 5.0
20-06-2023 171 30.8 16:00 17.4 4:10 23.4 95.9 57.5 33.7 1.8 6.5 260.7 20.5 0.8 5.3 6.5
19-06-2023 170 29.8 14:34 18.0 7:34 23.6 96.6 61.3 34.1 2.1 7.5 254.7 17.1 2.2 4.9 7.5
18-06-2023 169 28.9 14:00 19.0 23:00 24.8 84.9 44.8 27.2 1.3 8.1 231.1 10.0 2.2 3.5 8.1
17-06-2023 168 38.4 15:02 21.3 3:54 29.6 45.9 28.6 17.6 1.8 6.3 270.6 27.1 0.0 7.9 6.3
16-06-2023 167 37.1 15:06 21.7 3:56 29.2 47.5 31.2 18.5 1.6 5.3 159.7 27.9 0.0 7.5 5.3
15-06-2023 166 34.9 16:22 18.7 5:18 27.5 58.3 34.4 18.6 1.2 5.5 89.9 29.3 0.0 6.7 5.5
14-06-2023 165 31.7 15:26 16.4 4:06 24.2 66.1 42.5 24.6 1.1 5.0 277.9 26.7 0.0 5.8 5.0
13-06-2023 164 28.4 15:58 17.6 5:06 22.5 75.7 48.5 25.3 3.2 9.7 269.3 24.3 0.0 6.8 9.7
12-06-2023 163 30.9 15:10 17.8 5:14 24.1 64.4 45.3 24.3 2.8 8.1 276.7 26.2 0.0 7.3 8.1
11-06-2023 162 31.1 16:14 17.4 5:14 24.0 73.3 47.8 25.4 2.3 8.1 275.9 29.0 0.0 7.1 8.1
10-06-2023 161 28.4 14:28 16.8 4:18 22.1 81.7 56.2 32.0 1.8 5.9 256.0 24.2 0.0 5.6 5.9
09-06-2023 160 26.5 15:12 16.9 5:30 20.6 91.9 66.5 39.5 2.4 10.0 272.3 22.3 0.0 5.2 10.0
08-06-2023 159 25.6 16:42 17.4 5:26 20.7 90.5 77.9 55.2 1.5 8.0 286.4 15.0 1.2 3.5 8.0
07-06-2023 158 22.9 16:42 16.2 7:18 19.1 97.3 80.1 46.9 1.0 4.4 88.6 7.1 4.0 2.1 4.4
06-06-2023 157 33.1 14:42 16.9 4:50 25.5 79.9 43.9 22.1 1.2 5.2 94.5 25.8 0.0 5.9 5.2
05-06-2023 156 30.8 14:28 17.5 5:24 23.2 83.7 54.1 26.4 1.2 5.4 152.6 26.5 0.0 5.8 5.4
04-06-2023 155 29.6 13:42 15.7 4:46 21.8 76.4 53.7 30.3 1.6 5.7 143.3 25.2 0.2 5.7 5.7
03-06-2023 154 27.6 16:28 13.3 5:12 20.1 99.6 61.7 30.8 1.1 4.9 106.6 26.8 0.0 5.2 4.9
02-06-2023 153 24.0 11:00 13.9 3:14 17.7 98.1 70.4 37.5 1.2 6.6 134.8 14.4 3.0 3.3 6.6
01-06-2023 152 27.0 11:14 14.7 5:00 20.0 80.4 53.6 23.8 1.8 9.6 120.4 19.2 1.0 5.0 9.6
31-05-2023 151 27.2 15:22 15.0 5:28 20.7 83.5 53.4 30.6 1.6 6.1 267.6 28.0 0.0 5.7 6.1
30-05-2023 150 25.5 15:32 14.4 5:10 19.9 81.3 54.4 24.5 2.3 7.5 266.8 25.7 0.0 5.8 7.5
29-05-2023 149 24.9 15:42 14.0 3:24 18.9 93.0 61.0 29.9 1.9 7.5 264.3 24.0 0.0 5.0 7.5
28-05-2023 148 24.5 15:54 13.5 1:44 17.7 99.9 75.7 41.6 1.7 8.6 264.1 20.2 0.0 4.2 8.6
27-05-2023 147 19.3 00:02 13.7 23:58 15.7 99.9 88.3 58.1 1.4 6.3 121.3 6.6 6.0 1.9 6.3
26-05-2023 146 27.7 14:06 13.8 5:38 20.5 100.0 63.2 31.3 1.5 6.1 73.2 24.0 14.2 5.1 6.1
25-05-2023 145 28.2 15:30 12.6 4:04 19.7 99.9 58.6 24.9 1.7 6.9 81.1 27.9 11.0 5.8 6.9
24-05-2023 144 25.2 14:48 13.1 5:42 17.1 99.9 74.5 34.3 1.1 6.0 143.7 22.8 1.8 4.3 6.0
23-05-2023 143 17.8 17:40 10.9 00:40 14.1 99.9 87.9 65.2 0.7 3.2 88.7 9.6 1.6 1.9 3.2
22-05-2023 142 18.3 13:14 11.0 23:14 14.5 99.9 73.8 49.2 1.0 3.9 150.6 7.4 8.0 1.9 3.9
21-05-2023 141 23.5 11:44 11.3 4:22 15.9 77.3 58.8 27.5 1.8 9.6 229.5 15.0 0.0 4.1 9.6
20-05-2023 140 23.3 15:08 11.4 4:46 16.7 80.0 52.2 21.5 1.8 9.5 143.1 23.9 0.0 5.0 9.5
19-05-2023 139 24.3 15:38 10.2 5:04 16.9 88.5 53.3 20.4 1.6 7.0 257.1 26.6 0.0 5.2 7.0
18-05-2023 138 24.8 12:02 12.0 --:-- 16.9 84.9 55.5 27.1 1.9 7.1 166.4 17.3 8.0 4.4 7.1
17-05-2023 137 27.0 13:20 16.1 5:48 20.9 46.0 29.0 17.0 2.0 8.4 279.3 22.7 0.0 5.9 8.4
16-05-2023 136 27.3 15:46 13.7 4:26 20.5 44.3 22.7 7.7 1.5 5.2 52.7 28.9 0.0 6.1 5.2
15-05-2023 135 27.4 15:38 12.7 5:10 20.4 50.5 29.5 15.9 1.5 6.4 334.8 27.7 0.0 5.8 6.4
14-05-2023 134 24.8 16:32 11.1 4:02 18.7 49.1 31.5 18.8 1.3 5.8 19.4 23.9 0.0 4.9 5.8
13-05-2023 133 23.9 14:26 11.9 5:54 18.3 49.2 29.4 13.6 1.6 6.8 20.0 28.3 0.0 5.6 6.8
12-05-2023 132 28.1 14:34 13.5 5:36 20.4 44.7 26.0 13.2 2.1 8.4 352.5 24.2 0.0 6.3 8.4
11-05-2023 131 30.0 15:38 15.9 5:16 23.3 53.6 30.0 8.7 1.7 7.2 334.0 28.3 0.0 6.5 7.2
10-05-2023 130 32.1 16:06 18.4 5:08 25.3 52.4 31.1 16.7 2.0 7.6 258.1 27.4 0.0 7.0 7.6
09-05-2023 129 32.7 13:44 17.9 5:56 26.0 43.8 29.4 12.8 2.4 8.4 263.5 25.9 0.0 7.5 8.4
08-05-2023 128 32.2 16:00 16.2 5:36 25.1 52.5 30.8 16.9 1.3 5.3 256.4 25.9 0.0 5.9 5.3
07-05-2023 127 30.5 15:50 15.4 5:16 23.3 66.6 38.7 14.6 1.5 6.3 261.2 27.9 0.0 6.2 6.3
06-05-2023 126 30.2 15:12 16.4 4:46 23.4 49.4 27.0 10.1 2.4 8.2 261.4 26.6 0.0 7.2 8.2
05-05-2023 125 31.3 15:48 14.8 5:58 23.7 52.5 27.8 13.9 1.3 5.9 284.6 27.5 0.0 6.0 5.9
04-05-2023 124 28.2 15:50 15.6 5:22 21.7 67.3 37.8 10.6 2.1 6.8 266.4 24.4 0.0 6.2 6.8
03-05-2023 123 34.5 14:40 18.6 6:04 25.4 36.9 18.6 6.7 2.2 9.9 240.5 25.1 0.0 7.8 9.9
02-05-2023 122 32.2 15:44 14.9 5:06 24.6 46.4 24.0 7.2 1.3 5.1 71.1 23.7 0.0 5.7 5.1
01-05-2023 121 31.0 16:04 14.1 5:34 23.2 57.8 32.8 15.1 1.4 5.0 85.2 27.5 0.0 6.0 5.0
30-04-2023 120 30.4 14:36 15.5 6:00 22.9 61.5 38.5 19.8 1.7 7.8 280.3 20.9 0.0 5.5 7.8
29-04-2023 119 29.6 15:00 18.4 5:42 23.4 53.0 38.2 22.4 2.7 11.5 265.2 20.3 0.0 6.5 11.5
28-04-2023 118 35.6 13:40 19.3 4:40 27.3 35.8 24.4 13.0 1.9 7.6 238.4 19.0 0.0 6.6 7.6
27-04-2023 117 36.1 15:02 17.8 6:00 26.6 32.7 19.8 10.5 1.7 5.8 98.6 21.7 0.0 6.7 5.8
26-04-2023 116 33.9 16:32 15.0 5:20 25.4 40.4 21.1 9.3 1.9 6.9 134.3 27.1 0.0 7.0 6.9
25-04-2023 115 31.9 14:58 14.9 4:20 23.9 46.1 27.1 10.8 1.7 7.6 214.7 26.8 0.0 6.4 7.6
24-04-2023 114 30.0 15:16 12.7 5:38 22.1 52.5 27.4 7.6 1.7 6.5 222.7 26.9 0.0 6.2 6.5
23-04-2023 113 27.2 14:56 10.1 5:06 19.1 60.6 34.1 12.5 1.6 5.1 226.3 27.1 0.0 5.6 5.1
22-04-2023 112 23.1 15:36 12.7 6:10 17.4 77.4 54.3 32.3 2.4 8.3 239.6 17.5 0.0 4.4 8.3
21-04-2023 111 25.5 13:26 12.3 5:48 19.2 61.2 45.6 32.1 2.5 10.8 269.4 24.1 0.0 5.5 10.8
20-04-2023 110 28.2 16:32 10.9 5:50 20.2 61.8 34.5 12.8 1.5 5.2 272.3 26.1 0.0 5.5 5.2
19-04-2023 109 27.6 14:20 11.3 3:36 19.7 62.2 35.0 14.5 1.1 4.6 156.5 20.7 0.0 4.4 4.6
18-04-2023 108 28.6 14:32 11.7 5:56 20.4 48.6 27.6 12.5 1.4 7.2 62.2 26.3 0.0 5.5 7.2
17-04-2023 107 27.8 15:22 10.7 3:46 19.2 61.7 31.9 9.1 1.7 5.4 70.8 25.6 0.0 5.6 5.4
16-04-2023 106 26.8 16:32 13.2 5:50 19.9 49.6 25.3 7.1 1.6 5.3 60.8 26.3 0.0 5.5 5.3
15-04-2023 105 27.0 16:00 11.8 6:04 19.5 66.2 38.7 18.4 1.6 7.9 62.7 25.5 0.0 5.3 7.9
14-04-2023 104 23.9 15:10 9.5 4:16 16.6 51.3 34.9 24.3 2.3 8.1 246.7 23.3 0.0 5.2 8.1
13-04-2023 103 21.7 15:22 10.5 6:34 15.7 75.4 40.4 13.9 2.7 7.3 259.9 24.4 0.0 5.3 7.3
12-04-2023 102 24.4 13:44 12.5 5:30 18.4 63.6 42.6 20.6 3.1 10.4 272.3 23.8 0.0 5.9 10.4
11-04-2023 101 28.8 15:30 12.0 5:58 21.3 42.0 24.7 10.4 2.5 9.0 248.3 25.2 0.0 6.6 9.0
10-04-2023 100 29.4 14:12 13.7 5:46 21.9 51.0 26.8 9.3 1.8 7.1 231.1 23.2 0.0 5.7 7.1
09-04-2023 99 29.6 15:24 10.7 6:10 21.1 40.8 20.6 7.5 1.7 5.0 185.7 24.6 0.0 5.7 5.0
08-04-2023 98 28.4 16:16 10.4 6:06 19.7 41.0 22.7 7.9 1.6 5.5 119.5 25.1 0.0 5.5 5.5
07-04-2023 97 26.9 14:18 8.3 5:36 18.0 42.6 24.0 10.4 1.5 7.0 171.6 24.8 0.0 5.1 7.0
06-04-2023 96 25.4 15:58 7.3 6:10 17.3 53.6 24.0 6.0 1.6 4.6 95.8 20.5 0.0 4.7 4.6
05-04-2023 95 25.6 15:12 9.1 3:20 17.7 56.0 28.2 7.9 1.6 6.5 93.7 24.9 0.0 5.0 6.5
04-04-2023 94 24.9 15:26 8.9 6:32 17.0 50.0 24.4 9.2 1.4 6.3 79.9 23.1 0.0 4.6 6.3
03-04-2023 93 22.7 14:54 7.9 6:26 15.5 42.9 22.7 10.6 1.3 4.4 101.5 24.1 0.0 4.3 4.4
02-04-2023 92 21.8 16:04 11.3 5:58 16.4 86.3 37.4 13.3 1.7 5.8 69.1 23.8 0.0 4.4 5.8
01-04-2023 91 23.3 16:06 12.1 5:56 17.6 68.2 48.8 29.3 3.3 8.7 257.6 22.2 0.0 5.3 8.7
31-03-2023 90 23.9 13:48 12.2 6:18 18.5 59.8 44.6 25.4 2.2 9.3 264.6 18.5 0.0 4.5 9.3
30-03-2023 89 27.2 15:36 11.1 6:48 19.7 53.9 30.9 13.0 2.2 8.6 250.3 22.6 0.0 5.5 8.6
29-03-2023 88 28.6 15:06 11.0 4:54 19.9 60.8 34.5 15.6 1.7 5.8 151.2 23.1 0.0 5.2 5.8
28-03-2023 87 27.6 14:48 8.1 3:40 18.4 49.5 27.8 12.3 1.5 4.9 107.8 22.5 0.0 4.8 4.9
27-03-2023 86 24.6 15:32 10.4 5:30 17.3 58.2 32.2 14.4 1.3 4.9 80.4 21.9 0.0 4.2 4.9
26-03-2023 85 24.7 15:56 12.4 5:58 18.4 66.4 45.9 27.9 2.3 8.7 241.7 22.6 0.0 4.9 8.7
25-03-2023 84 26.0 15:52 9.5 5:34 18.1 77.3 49.3 26.9 1.6 5.9 195.8 22.1 0.0 4.3 5.9
24-03-2023 83 22.9 16:38 9.7 5:38 16.5 65.1 45.6 27.5 1.7 6.8 241.6 19.5 0.0 3.9 6.8
23-03-2023 82 25.6 14:36 9.7 4:30 17.9 61.8 39.0 21.8 2.0 7.3 219.2 21.9 0.0 4.8 7.3
22-03-2023 81 24.6 14:58 7.9 6:30 16.8 67.3 39.0 22.3 1.5 3.1 125.9 22.0 0.0 4.1 3.1
21-03-2023 80 23.3 16:54 7.6 5:54 16.0 62.2 38.7 19.8 1.6 4.8 170.1 20.8 0.0 4.0 4.8
20-03-2023 79 22.9 15:42 7.8 4:52 15.4 72.7 42.6 18.2 1.5 5.1 126.5 22.0 0.0 3.9 5.1
19-03-2023 78 21.1 14:52 6.3 6:38 13.9 80.6 48.9 23.6 1.3 4.5 94.7 19.8 0.0 3.3 4.5
18-03-2023 77 18.5 14:20 10.9 23:44 13.6 87.8 59.8 37.7 2.2 6.8 255.0 16.0 0.2 3.1 6.8
17-03-2023 76 18.9 16:28 10.3 4:16 14.3 85.9 60.9 36.3 2.4 8.2 250.3 13.4 0.0 3.1 8.2
16-03-2023 75 27.1 13:46 10.0 4:46 18.0 58.4 34.9 18.2 1.7 6.6 237.6 20.4 0.0 4.5 6.6
15-03-2023 74 25.0 15:50 7.2 6:28 16.0 64.7 39.6 18.4 1.4 4.2 94.3 20.9 0.0 3.9 4.2
14-03-2023 73 20.2 17:04 8.5 6:42 13.9 78.7 51.8 25.6 1.9 5.0 243.2 21.0 0.0 3.7 5.0
13-03-2023 72 23.5 14:06 11.7 4:20 17.8 81.9 57.0 33.4 2.7 9.2 250.8 19.8 0.0 4.2 9.2
12-03-2023 71 26.4 16:36 9.3 7:08 17.6 93.3 62.9 33.8 1.3 3.3 135.1 20.0 0.0 3.6 3.3
11-03-2023 70 19.4 15:52 8.0 6:28 14.5 98.0 72.7 55.6 2.0 6.2 217.1 14.8 0.0 2.5 6.2
10-03-2023 69 19.8 16:16 12.1 6:50 15.1 92.7 69.0 44.4 2.4 6.0 250.3 15.3 0.0 3.0 6.0
09-03-2023 68 19.1 13:08 11.5 4:56 14.7 95.1 81.5 64.8 3.8 12.7 252.7 8.2 0.6 2.2 12.7
08-03-2023 67 19.2 13:44 11.3 7:14 14.6 99.9 80.8 65.0 2.7 9.8 237.5 9.8 0.2 2.0 9.8
07-03-2023 66 17.2 15:36 10.5 00:10 13.2 99.9 75.9 53.0 3.4 9.6 251.5 13.3 1.6 2.5 9.6
06-03-2023 65 15.9 14:32 6.9 1:56 10.7 99.9 86.6 55.4 1.4 4.8 283.2 12.1 2.0 1.8 4.8
05-03-2023 64 13.3 14:32 5.2 6:12 8.8 99.9 57.1 35.8 1.2 4.1 91.8 7.8 9.4 1.6 4.1
04-03-2023 63 17.7 15:42 2.9 6:26 9.8 63.3 37.2 16.1 1.6 5.0 126.8 18.6 0.0 3.1 5.0